Terminal Aerodrome Forecast
Issued by NWS St Louis, MO

Home | Current Version | Previous Version | Text Only | Print | Product List | Glossary On
Versions: 1 2 3 4 5 6 7 8 9 10 11 12 13 14 15 16 17 18 19 20 21 22 23 24 25 26
367
FTUS43 KLSX 011201 AAA
TAFCOU
TAF AMD
KCOU 011201Z 0112/0212 VRB04KT 1/4SM FG VV002
     FM011300 VRB04KT 5SM BR BKN003 OVC050
      TEMPO 0113/0114 1SM BR OVC002
     FM011500 27008KT P6SM BKN020
     FM011800 27011KT P6SM BKN040
     FM020100 32007KT P6SM BKN030
     FM020800 35007KT P6SM BKN010=

USA.gov is the U.S. government's official web portal to all federal, state and local government web resources and services.